createdAt,value
2022-10-11T05:41:01.352Z,20.97
2022-10-11T05:44:08.807Z,17.63
2022-10-11T05:47:15.226Z,17.23
2022-10-11T05:50:23.391Z,16.23
2022-10-11T05:53:29.442Z,17.63
2022-10-11T05:56:32.786Z,15.80
2022-10-11T05:59:36.221Z,18.73
2022-10-11T06:02:39.487Z,17.00
2022-10-11T06:05:42.734Z,18.05
2022-10-11T06:08:48.015Z,18.90
2022-10-11T06:11:51.444Z,19.47
2022-10-11T06:14:54.957Z,17.20
2022-10-11T06:17:59.367Z,17.27
2022-10-11T06:21:03.239Z,18.73
2022-10-11T06:24:07.111Z,16.77
2022-10-11T06:27:10.921Z,16.73
2022-10-11T06:30:14.955Z,15.40
2022-10-11T06:33:18.750Z,19.58
2022-10-11T06:36:22.535Z,21.27
2022-10-11T06:39:26.027Z,15.53
2022-10-11T06:42:29.648Z,21.43
2022-10-11T06:45:33.157Z,17.15
2022-10-11T06:48:39.976Z,17.75
2022-10-11T06:51:43.546Z,15.85
2022-10-11T06:54:46.786Z,19.83
2022-10-11T06:57:50.250Z,16.53
2022-10-11T07:00:53.954Z,13.55
2022-10-11T07:03:59.982Z,19.00
2022-10-11T07:07:03.637Z,16.40
2022-10-11T07:10:07.594Z,12.93
2022-10-11T07:13:16.255Z,16.27
2022-10-11T07:16:21.270Z,15.23
2022-10-11T07:19:24.640Z,15.30
2022-10-11T07:22:28.189Z,15.82
2022-10-11T07:25:31.492Z,17.63
2022-10-11T07:28:36.026Z,16.67
2022-10-11T07:31:42.149Z,15.35
2022-10-11T07:34:45.480Z,14.30
2022-10-11T07:37:48.708Z,17.00
2022-10-11T07:40:52.049Z,15.03
2022-10-11T07:43:55.747Z,15.40
2022-10-11T07:46:59.027Z,15.23
2022-10-11T07:50:02.263Z,13.73
2022-10-11T07:53:05.616Z,15.90
2022-10-11T07:56:10.497Z,14.77
2022-10-11T07:59:13.726Z,16.23
2022-10-11T08:02:16.989Z,14.05
2022-10-11T08:05:20.899Z,14.60
2022-10-11T08:08:24.217Z,14.85
2022-10-11T08:11:30.846Z,15.27
2022-10-11T08:14:34.255Z,16.17
2022-10-11T08:17:37.525Z,15.57
2022-10-11T08:20:40.996Z,13.82
2022-10-11T08:23:44.839Z,15.32
2022-10-11T08:26:48.571Z,13.67
2022-10-11T08:29:51.990Z,13.80
2022-10-11T08:32:55.593Z,19.63
2022-10-11T08:35:59.115Z,17.35
2022-10-11T08:39:02.585Z,18.35
2022-10-11T08:42:17.854Z,14.43
2022-10-11T08:45:44.330Z,16.50
2022-10-11T08:48:50.537Z,16.38
2022-10-11T08:52:02.710Z,32.83
2022-10-11T08:55:16.421Z,38.17
2022-10-11T08:58:25.232Z,23.50
2022-10-11T09:01:31.573Z,19.03
2022-10-11T09:04:35.515Z,15.98
2022-10-11T09:08:03.475Z,18.65
2022-10-11T09:11:10.892Z,17.50
2022-10-11T09:14:31.884Z,18.07
2022-10-11T09:18:12.555Z,25.33
2022-10-11T09:21:52.142Z,24.30
2022-10-11T09:25:25.866Z,22.05
2022-10-11T09:29:09.251Z,23.58
2022-10-11T09:32:16.528Z,18.17
2022-10-11T09:35:22.791Z,26.23
2022-10-11T09:38:32.032Z,21.38
2022-10-11T09:42:01.819Z,32.08
2022-10-11T09:45:16.805Z,24.73
2022-10-11T09:48:31.758Z,26.33
2022-10-11T09:51:35.454Z,16.70
2022-10-11T09:54:50.381Z,20.05
2022-10-11T09:57:55.862Z,15.65
2022-10-11T10:01:07.986Z,16.83
2022-10-11T10:04:14.612Z,17.37
2022-10-11T10:07:17.973Z,16.30
2022-10-11T10:10:39.619Z,16.10
2022-10-11T10:13:46.360Z,19.63
2022-10-11T10:16:57.784Z,16.15
2022-10-11T10:20:01.573Z,18.63
2022-10-11T10:23:26.409Z,14.47
2022-10-11T10:26:31.688Z,16.52
2022-10-11T10:29:35.998Z,16.25
2022-10-11T10:32:52.330Z,15.65
2022-10-11T10:35:58.700Z,16.40
2022-10-11T10:39:24.219Z,17.13
2022-10-11T10:42:27.885Z,20.10
2022-10-11T10:45:50.068Z,18.92
2022-10-11T10:53:32.520Z,14.63
2022-10-11T10:56:53.585Z,16.97
2022-10-11T11:00:04.524Z,19.13
2022-10-11T11:03:14.908Z,16.45
2022-10-11T11:06:45.205Z,17.70
2022-10-11T11:10:03.165Z,18.30
2022-10-11T11:13:35.352Z,19.40
2022-10-11T11:16:59.829Z,18.98
2022-10-11T11:20:26.816Z,18.40
2022-10-11T11:23:50.325Z,19.40
2022-10-11T11:27:04.715Z,15.33
2022-10-11T11:30:36.721Z,20.20
2022-10-11T11:34:18.980Z,17.13
2022-10-11T11:37:38.836Z,17.17
2022-10-11T11:41:06.371Z,15.77
2022-10-11T11:44:28.288Z,16.87
2022-10-11T11:47:37.827Z,15.47
2022-10-11T11:50:45.144Z,14.20
2022-10-11T11:53:56.868Z,17.35
2022-10-11T11:57:09.098Z,15.80
2022-10-11T12:00:18.534Z,15.57
2022-10-11T12:03:41.431Z,17.90
2022-10-11T12:07:15.792Z,16.15
2022-10-11T12:10:48.765Z,18.15
2022-10-11T12:13:54.004Z,16.73
2022-10-11T12:17:11.029Z,18.07
2022-10-11T12:20:37.990Z,15.90
2022-10-11T12:23:45.445Z,18.10
2022-10-11T12:26:50.072Z,17.05
2022-10-11T12:29:53.462Z,14.52
2022-10-11T12:33:18.617Z,15.37
2022-10-11T12:36:40.815Z,17.80
2022-10-11T12:40:00.849Z,39.08
2022-10-11T12:43:27.019Z,24.95
2022-10-11T12:46:31.259Z,16.63
2022-10-11T12:50:06.156Z,16.37
2022-10-11T12:53:26.857Z,13.20
2022-10-11T12:57:09.651Z,16.20
2022-10-11T13:00:20.760Z,17.83
2022-10-11T13:03:47.467Z,18.25
2022-10-11T13:06:54.935Z,16.47
2022-10-11T13:09:58.696Z,17.23
2022-10-11T13:13:04.581Z,15.27
2022-10-11T13:16:20.058Z,16.42
2022-10-11T13:19:24.176Z,18.10
2022-10-11T13:22:28.510Z,17.63
2022-10-11T13:25:37.807Z,16.60
2022-10-11T13:28:41.751Z,18.60
2022-10-11T13:31:49.318Z,18.17
2022-10-11T13:34:58.628Z,23.35
2022-10-11T13:38:02.878Z,13.67
2022-10-11T13:41:09.361Z,18.10
2022-10-11T13:44:12.683Z,16.88
2022-10-11T13:47:18.741Z,16.00
2022-10-11T13:50:34.390Z,14.80
2022-10-11T13:53:37.637Z,20.53
2022-10-11T13:56:50.920Z,16.47
2022-10-11T13:59:54.430Z,25.50
2022-10-11T14:03:05.892Z,20.58
2022-10-11T14:06:09.682Z,16.83
2022-10-11T14:09:23.630Z,19.40
2022-10-11T14:12:30.598Z,19.60
2022-10-11T14:15:38.241Z,16.42
2022-10-11T14:18:45.077Z,19.50
2022-10-11T14:21:51.504Z,18.20
2022-10-11T14:24:54.750Z,17.70
2022-10-11T14:27:58.406Z,15.90
2022-10-11T14:31:01.747Z,18.90
2022-10-11T14:34:05.982Z,14.43
2022-10-11T14:37:12.555Z,17.20
2022-10-11T14:40:25.315Z,18.00
2022-10-11T14:43:28.551Z,20.50
2022-10-11T14:46:32.118Z,15.18
2022-10-11T14:49:37.446Z,15.13
2022-10-11T14:52:41.894Z,22.55
2022-10-11T14:55:45.385Z,15.73
2022-10-11T14:58:49.004Z,23.00
2022-10-11T15:01:54.096Z,30.13
2022-10-11T15:04:57.388Z,35.08
2022-10-11T15:08:01.061Z,58.88
2022-10-11T15:11:04.942Z,32.47
2022-10-11T15:14:08.216Z,21.17
2022-10-11T15:17:12.596Z,21.08
2022-10-11T15:20:41.314Z,19.20
2022-10-11T15:23:44.520Z,19.67
2022-10-11T15:26:48.394Z,21.57
2022-10-11T15:29:51.651Z,23.57
2022-10-11T15:32:55.182Z,27.02
2022-10-11T15:35:58.368Z,31.10
2022-10-11T15:39:01.808Z,27.52
2022-10-11T15:42:05.293Z,29.37
2022-10-11T15:45:09.095Z,21.37
2022-10-11T15:48:19.006Z,26.63
2022-10-11T15:51:22.254Z,19.80
2022-10-11T15:54:25.755Z,19.67
2022-10-11T15:57:28.999Z,19.13
2022-10-11T16:00:32.561Z,18.00
2022-10-11T16:03:37.070Z,19.98
2022-10-11T16:06:41.157Z,19.58
2022-10-11T16:09:44.581Z,20.25
2022-10-11T16:12:48.727Z,22.07
2022-10-11T16:15:51.967Z,24.53
2022-10-11T16:18:55.355Z,24.02
2022-10-11T16:21:58.638Z,28.15
2022-10-11T16:25:02.682Z,38.75
2022-10-11T16:28:08.114Z,39.27
2022-10-11T16:31:20.928Z,40.00
2022-10-11T16:34:24.263Z,37.92
2022-10-11T16:37:27.566Z,34.83
2022-10-11T16:40:30.821Z,34.45
2022-10-11T16:43:34.020Z,32.53
2022-10-11T16:46:37.229Z,28.50
2022-10-11T16:49:40.459Z,30.45
2022-10-11T16:52:43.707Z,32.30
2022-10-11T16:55:46.968Z,35.25
2022-10-11T16:58:54.167Z,36.33
2022-10-11T17:01:58.022Z,58.43
2022-10-11T17:05:01.441Z,63.40
2022-10-11T17:08:04.864Z,52.17
2022-10-11T17:11:08.243Z,44.45
2022-10-11T17:14:13.276Z,44.53
2022-10-11T17:17:17.636Z,44.27
2022-10-11T17:20:20.881Z,60.50
2022-10-11T17:23:24.182Z,48.08
2022-10-11T17:26:28.241Z,37.13
2022-10-11T17:29:32.124Z,39.07
2022-10-11T17:32:35.531Z,35.53
2022-10-11T17:35:38.751Z,37.50
2022-10-11T17:38:42.064Z,31.80
2022-10-11T17:41:46.364Z,28.13
2022-10-11T17:44:49.631Z,28.63
2022-10-11T17:47:53.168Z,29.73
2022-10-11T17:50:56.536Z,28.73
2022-10-11T17:53:59.765Z,29.10
2022-10-11T17:57:03.180Z,31.27
2022-10-11T18:00:08.271Z,32.73
2022-10-11T18:03:11.842Z,35.77
2022-10-11T18:06:15.015Z,37.63
2022-10-11T18:09:24.703Z,35.80
2022-10-11T18:12:28.136Z,37.97
2022-10-11T18:15:32.794Z,34.47
2022-10-11T18:18:37.105Z,35.67
2022-10-11T18:21:41.148Z,38.60
2022-10-11T18:24:44.373Z,28.90
2022-10-11T18:27:47.590Z,28.83
2022-10-11T18:30:52.049Z,30.17
2022-10-11T18:33:55.360Z,27.43
2022-10-11T18:36:58.663Z,29.98
2022-10-11T18:40:01.982Z,31.73
2022-10-11T18:43:06.031Z,26.98
2022-10-11T18:46:10.956Z,25.83
2022-10-11T18:49:14.704Z,24.37
2022-10-11T18:52:18.868Z,22.98
2022-10-11T18:55:22.248Z,24.33
2022-10-11T18:58:25.519Z,28.10
2022-10-11T19:01:34.904Z,24.33
2022-10-11T19:04:39.693Z,24.43
2022-10-11T19:07:43.200Z,25.20
2022-10-11T19:10:46.770Z,22.92
2022-10-11T19:13:56.690Z,20.90
2022-10-11T19:16:59.965Z,22.60
2022-10-11T19:20:03.370Z,22.73
2022-10-11T19:23:06.839Z,22.98
2022-10-11T19:26:15.585Z,31.02
2022-10-11T19:29:20.600Z,22.75
2022-10-11T19:32:23.905Z,23.40
2022-10-11T19:35:27.281Z,23.30
2022-10-11T19:38:33.077Z,20.55
2022-10-11T19:41:36.425Z,24.75
2022-10-11T19:44:39.910Z,24.55
2022-10-11T19:47:43.146Z,24.70
2022-10-11T19:50:47.291Z,24.43
2022-10-11T19:53:57.038Z,26.40
2022-10-11T19:57:00.323Z,26.52
2022-10-11T20:00:05.062Z,22.77
2022-10-11T20:03:08.229Z,22.37
2022-10-11T20:06:12.047Z,21.50
2022-10-11T20:09:29.100Z,25.67
2022-10-11T20:12:34.038Z,24.30
2022-10-11T20:15:38.467Z,22.52
2022-10-11T20:18:42.801Z,21.67
2022-10-11T20:21:46.067Z,22.97
2022-10-11T20:24:49.275Z,19.67
2022-10-11T20:27:52.591Z,21.58
2022-10-11T20:30:56.166Z,22.30
2022-10-11T20:34:02.220Z,21.17
2022-10-11T20:37:05.436Z,19.20
2022-10-11T20:40:09.344Z,20.88
2022-10-11T20:43:14.239Z,20.00
2022-10-11T20:46:26.821Z,19.85
2022-10-11T20:49:29.998Z,22.93
2022-10-11T20:52:33.584Z,18.27
2022-10-11T20:55:36.972Z,21.23
2022-10-11T20:58:41.303Z,24.25
2022-10-11T21:01:44.664Z,21.63
2022-10-11T21:04:47.955Z,22.57
2022-10-11T21:07:53.141Z,21.07
2022-10-11T21:10:56.542Z,20.27
2022-10-11T21:14:03.210Z,22.48
2022-10-11T21:17:06.458Z,21.05
2022-10-11T21:20:10.166Z,22.40
2022-10-11T21:23:14.430Z,24.73
2022-10-11T21:26:20.768Z,22.38
2022-10-11T21:29:24.028Z,22.02
2022-10-11T21:32:27.287Z,21.40
2022-10-11T21:35:31.604Z,18.93
2022-10-11T21:38:35.804Z,19.77
2022-10-11T21:41:41.961Z,18.17
2022-10-11T21:44:45.305Z,22.05
2022-10-11T21:47:48.580Z,22.13
2022-10-11T21:50:55.422Z,26.03
2022-10-11T21:54:02.971Z,23.70
2022-10-11T21:57:06.372Z,24.05
2022-10-11T22:00:10.416Z,22.90
2022-10-11T22:03:16.589Z,27.10
2022-10-11T22:06:20.197Z,23.27
2022-10-11T22:09:23.522Z,23.80
2022-10-11T22:12:26.736Z,28.50
2022-10-11T22:15:32.932Z,26.75
2022-10-11T22:18:38.058Z,29.65
2022-10-11T22:21:44.864Z,23.63
2022-10-11T22:24:48.486Z,22.57
2022-10-11T22:27:51.680Z,24.25
2022-10-11T22:30:54.928Z,18.80
2022-10-11T22:34:00.205Z,21.17
2022-10-11T22:37:03.410Z,22.47
2022-10-11T22:40:07.226Z,19.93
2022-10-11T22:43:10.554Z,19.52
2022-10-11T22:46:13.824Z,19.77
2022-10-11T22:49:17.210Z,22.85
2022-10-11T22:52:20.448Z,22.50
2022-10-11T22:55:23.721Z,22.03
2022-10-11T22:58:27.393Z,19.77
2022-10-11T23:01:30.591Z,17.70
2022-10-11T23:04:33.893Z,19.73
2022-10-11T23:07:37.381Z,20.90
2022-10-11T23:10:41.144Z,19.60
2022-10-11T23:13:44.595Z,20.52
2022-10-11T23:16:50.257Z,20.65
2022-10-11T23:19:53.442Z,22.60
2022-10-11T23:22:56.632Z,20.90
2022-10-11T23:26:14.192Z,21.53
2022-10-11T23:29:17.731Z,21.33
2022-10-11T23:32:21.362Z,20.65
2022-10-11T23:35:24.690Z,22.23
2022-10-11T23:38:28.288Z,19.67
2022-10-11T23:41:31.844Z,23.13
2022-10-11T23:44:35.062Z,22.83
2022-10-11T23:47:38.298Z,22.42
2022-10-11T23:50:42.561Z,23.30
2022-10-11T23:53:45.789Z,23.10
2022-10-11T23:56:49.049Z,23.80
2022-10-11T23:59:52.297Z,21.98
